Terminal Aerodrome Forecast
Issued by NWS

Home | Current Version | Previous Version | Text Only | Print | Product List | Glossary On
Versions: 1 2 3 4 5 6 7 8 9 10 11 12 13 14 15 16 17 18 19 20 21 22 23 24 25
000
FTUS41 KALY 052331
TAFPSF
TAF
KPSF 052331Z 0600/0624 30007KT P6SM OVC200
     FM060300 VRB03KT P6SM OVC120
     FM060900 00000KT P6SM OVC100
     FM061700 26005KT P6SM SCT050 SCT120=

USA.gov is the U.S. government's official web portal to all federal, state and local government web resources and services.